Pahrump, Nevada Weather observations

Data are for observation ending at time listed.
 Day   Time    Ave.   Ave.  Ave.  Vector   Max.   Stn.    Total    Solar   Ave.  
  of    of     Air    Rel.  Wind   Wind    Wind   Baro.  Precip.   Rad.    Soil  
Year   Day     Temp.  Hum.  Speed  Dir.    Gust   Pres.                    Temp. 
2026   (PST)    F      %     mph   deg.    mph     mb.     in.     W/m2     F   
------------------------------------------------------------------------------
 125   13:30   69.2    28    4.1   299      7.4   917.7    0.00     809    79.3
 125   13:40   69.4    28    3.2   303      9.1   917.6    0.00     715    79.5
 125   13:50   70.2    27    1.5   339      4.7   917.5    0.00     896    79.6
 125   14:00   72.9    25    0.6   183      5.0   917.4    0.00     858    79.7
 125   14:10   73.2    24    0.1   296      0.1   917.5    0.00     873    79.7
 125   14:20   70.9    26    0.3   267      9.3   917.5    0.00     869    79.6
 125   14:30   70.8    26    0.1   275      0.1   917.4    0.00     806    79.5
 125   14:40   71.0    26    0.1   280      0.1   917.3    0.00     747    79.4
 125   14:50   71.1    26    1.2   348      6.1   917.2    0.00     728    79.3
 125   15:00   70.9    26    4.7    16      9.9   917.0    0.00     696    79.2
 125   15:10   71.2    26    4.1   274      9.9   916.9    0.00     679    79.2
 125   15:20   71.7    26    3.3   224      7.7   916.8    0.00     628    79.2
 125   15:30   72.2    25    4.3   266      9.8   916.7    0.00     607    79.4
 125   15:40   71.4    26    4.0   238      8.8   916.7    0.00     576    79.7
 125   15:50   71.7    25    3.6   283      9.6   916.7    0.00     543    80.0
 125   16:00   72.9    24    1.1   336      4.7   916.7    0.00     514    80.3
 125   16:10   73.1    24    2.7   289      5.4   916.8    0.00     488    80.5
 125   16:20   72.2    25    4.2   283      9.9   916.8    0.00     446    80.8
 125   16:30   72.1    24    5.5   295     12.6   916.8    0.00     410    81.0
 125   16:40   71.3    25    5.6   304     10.7   916.8    0.00     355    81.2
 125   16:50   71.5    25    5.0   279      8.7   916.8    0.00     340    81.3
 125   17:00   70.9    25    3.4   274      6.6   916.7    0.00     301    81.4
 125   17:10   71.5    25    2.8   241      5.5   916.7    0.00     271    81.5
 125   17:20   71.5    25    3.1   216      6.6   916.7    0.00     241    81.5
 125   17:30   70.4    26    1.7   252      7.6   916.6    0.00     206    81.5
 125   17:40   70.3    26    0.0   226      0.1   916.6    0.00     143    81.4
 125   17:50   70.5    25    0.0   241      0.1   916.5    0.00     146    81.3
 125   18:00   70.2    25    1.6   201      5.8   916.4    0.00      79    81.2
 125   18:10   70.0    25    1.8   228      4.6   916.4    0.00      83    81.0
 125   18:20   69.5    26    0.8   237      4.2   916.5    0.00      55    80.9
 125   18:30   68.7    26    0.7   256      3.7   916.5    0.00      34    80.7
 125   18:40   67.7    27    0.0   245      0.5   916.5    0.00      11    80.5
 125   18:50   67.2    27    0.0   233      1.4   916.5    0.00       3    80.3
 125   19:00   66.9    27    0.9   215      3.1   916.5    0.00       1    80.1
 125   19:10   66.6    28    0.0   237      1.5   916.5    0.00       0    79.8
 125   19:20   66.5    27    0.4   207      3.0   916.6    0.00       0    79.6
 125   19:30   66.8    27    2.7   198      5.1   916.6    0.00       0    79.4
 125   19:40   67.2    26    2.7   186      4.9   916.8    0.00       0    79.1
 125   19:50   66.7    27    0.9   206      3.5   917.0    0.00       0    78.9
 125   20:00   66.3    27    0.0   202      0.1   917.1    0.00       0    78.6
 125   20:10   66.4    27    0.0     0      0.0   917.2    0.00       0    78.4
 125   20:20   65.9    27    3.4   139      5.7   917.4    0.00       0    78.2
 125   20:30   65.3    27    4.9   134      6.9   917.4    0.00       0    78.0
 125   20:40   64.9    27    4.5   134      5.8   917.6    0.00       0    77.8
 125   20:50   64.7    26    3.7   120      5.1   917.6    0.00       0    77.5
 125   21:00   64.2    27    4.5   105      6.5   917.7    0.00       0    77.3
 125   21:10   63.8    29    5.3   104      7.4   917.8    0.00       0    77.2
 125   21:20   63.4    30    5.8   104      8.5   917.9    0.00       0    77.0
 125   21:30   63.4    30    6.7   102     10.2   918.0    0.00       0    76.8
 125   21:40   63.4    30    7.4   100     10.4   918.1    0.00       0    76.7
 125   21:50   63.3    30    7.4   102     10.1   918.1    0.00       0    76.5
 125   22:00   63.0    31    8.0    99     11.0   918.1    0.00       0    76.3
 125   22:10   62.9    31    7.7    98     10.2   918.1    0.00       0    76.2
 125   22:20   62.7    31    8.0    97     10.7   918.1    0.00       0    76.0
 125   22:30   62.7    31    8.2   101     11.4   918.0    0.00       0    75.9
 125   22:40   62.6    31    8.3    95     10.8   918.1    0.00       0    75.7
 125   22:50   62.6    31    8.4    96     11.3   918.2    0.00       0    75.6
 125   23:00   62.4    31    7.8    98     11.5   918.2    0.00       0    75.5
 125   23:10   62.6    31    7.0   100     10.8   918.3    0.00       0    75.3
 125   23:20   61.2    31    0.9   176      4.7   918.5    0.00       0    75.2
 125   23:30   58.0    32    0.0   247      0.1   918.6    0.00       0    75.1
 125   23:40   57.0    32    0.0   264      0.1   918.5    0.00       0    74.9
 125   23:50   56.9    32    0.0   205      0.1   918.4    0.00       0    74.8
 126    0:00   56.9    32    0.0   219      0.1   918.2    0.00       0    74.6
 126    0:10   57.7    32    0.0     0      0.0   918.2    0.00       0    74.5
 126    0:20   58.0    31    0.0     0      0.0   918.2    0.00       0    74.3
 126    0:30   57.5    32    0.0     0      0.0   918.2    0.00       0    74.2
 126    0:40   57.4    33    0.0     0      0.0   918.1    0.00       0    74.0
 126    0:50   57.9    33    0.0     0      0.0   918.2    0.00       0    73.9
 126    1:00   58.5    34    0.0     0      0.0   918.3    0.00       0    73.8
 126    1:10   58.8    34    0.0     0      0.0   918.3    0.00       0    73.6
 126    1:20   59.1    34    0.0     0      0.0   918.4    0.00       0    73.5
 126    1:30   58.8    35    0.1   287      3.8   918.5    0.00       0    73.3
 126    1:40   54.8    39    1.1   309      3.4   918.5    0.00       0    73.2
 126    1:50   53.1    42    0.7   313      4.1   918.5    0.00       0    73.0
 126    2:00   53.2    41    0.0   297      0.1   918.5    0.00       0    72.9
 126    2:10   54.3    40    0.0     0      0.0   918.4    0.00       0    72.8
 126    2:20   55.1    40    0.0   292      0.1   918.4    0.00       0    72.7
 126    2:30   53.8    43    0.4   284      3.5   918.5    0.00       0    72.5
 126    2:40   52.5    43    1.8   308      3.4   918.6    0.00       0    72.4
 126    2:50   52.0    44    0.1   305      2.5   918.7    0.00       0    72.3
 126    3:00   52.5    42    0.0     0      0.0   918.8    0.00       0    72.1
 126    3:10   53.0    41    0.0     0      0.0   918.8    0.00       0    72.0
 126    3:20   52.9    43    0.0   267      0.1   918.8    0.00       0    71.9
 126    3:30   52.7    45    0.0   301      0.1   918.9    0.00       0    71.7
 126    3:40   53.1    42    0.0   322      0.1   918.9    0.00       0    71.6
 126    3:50   53.3    44    0.0   293      0.1   919.0    0.00       0    71.5
 126    4:00   53.0    42    0.0   328      0.1   919.1    0.00       0    71.3
 126    4:10   53.0    42    0.0   323      0.1   919.1    0.00       0    71.2
 126    4:20   52.9    43    0.9    59      2.5   919.1    0.00       0    71.1
 126    4:30   53.3    42    1.4    63      2.9   919.2    0.00       0    71.0
 126    4:40   53.2    42    0.7    31      2.0   919.3    0.00       1    70.9
 126    4:50   52.4    44    1.0    12      2.2   919.4    0.00       3    70.7
 126    5:00   52.3    44    1.1    12      2.6   919.6    0.00       7    70.6
 126    5:10   52.5    45    0.3    49      1.8   919.6    0.00      12    70.5
 126    5:20   53.0    44    0.5    47      1.4   919.7    0.00      32    70.4
 126    5:30   54.8    41    0.0   353      0.6   919.9    0.00      65    70.3
 126    5:40   56.3    39    0.0   246      0.1   920.1    0.00      91    70.2
 126    5:50   56.6    39    0.1   331      3.4   920.4    0.00     117    70.1
 126    6:00   56.8    40    0.8   323      3.5   920.6    0.00     144    70.0
 126    6:10   57.1    40    0.1   306      0.1   920.8    0.00     174    70.0
 126    6:20   57.3    40    0.1   312      0.1   921.0    0.00     205    69.9
 126    6:30   57.4    40    0.1   314      0.1   921.2    0.00     237    69.8
 126    6:40   57.7    41    0.1   310      0.1   921.5    0.00     270    69.8
 126    6:50   58.6    36    1.7   342      4.1   921.7    0.00     304    69.7
 126    7:00   59.5    35    0.1   323      0.1   921.9    0.00     338    69.7
 126    7:10   60.0    35    0.1   319      0.1   922.1    0.00     372    69.7
 126    7:20   61.1    35    0.1   298      0.1   922.2    0.00     406    69.6
 126    7:30   62.4    34    0.0   337      0.1   922.4    0.00     439    69.6
 126    7:40   63.2    33    0.0   108      2.3   922.5    0.00     472    69.6
 126    7:50   63.4    33    0.0   294      0.1   922.6    0.00     504    69.6
 126    8:00   63.4    34    0.1   302      0.1   922.8    0.00     536    69.6
 126    8:10   63.6    34    1.5   298      5.6   922.9    0.00     567    69.6
 126    8:20   64.2    33    1.7   182      4.9   923.0    0.00     597    69.7
 126    8:30   65.9    31    1.5   156      4.4   923.1    0.00     628    69.8
 126    8:40   66.3    30    0.1    88      3.9   923.3    0.00     657    70.0
 126    8:50   67.5    30    0.0   246      0.1   923.4    0.00     685    70.4
 126    9:00   67.3    30    0.0   296      0.1   923.5    0.00     712    70.7
 126    9:10   68.8    29    0.0   320      0.1   923.6    0.00     738    71.1
 126    9:20   68.2    29    0.2   322      3.7   923.7    0.00     762    71.5
 126    9:30   69.2    29    0.0   281      0.1   923.8    0.00     786    71.8
 126    9:40   69.2    29    0.0   267      0.1   923.9    0.00     808    72.1
 126    9:50   71.0    27    0.0   328      0.1   924.1    0.00     828    72.4
 126   10:00   70.5    28    0.0   313      1.2   924.1    0.00     847    72.9
 126   10:10   70.7    28    0.0   279      0.1   924.0    0.00     865    73.3
 126   10:20   71.2    27    0.0   137      1.0   924.1    0.00     882    73.9
 126   10:30   72.4    26    0.1    71      2.3   924.0    0.00     894    74.5
 126   10:40   73.3    26    0.4   146      6.0   924.1    0.00     908    75.0
 126   10:50   73.4    25    0.0   133      0.2   924.0    0.00     920    75.6
 126   11:00   73.8    25    0.1   338      4.5   924.1    0.00     929    76.1
 126   11:10   75.4    24    0.1   139      2.8   924.0    0.00     938    76.7
 126   11:20   75.4    24    0.1   134      2.6   924.0    0.00     944    77.2
 126   11:30   75.2    24    0.0    98      0.9   923.9    0.00     949    77.7
 126   11:40   75.6    24    0.0   103      0.1   923.8    0.00     952    78.1
 126   11:50   76.8    23    2.5   138     11.5   923.7    0.00     954    78.5
 126   12:00   77.2    23    3.9   132      7.9   923.7    0.00     954    78.7
 126   12:10   78.7    22    2.8    81      7.5   923.6    0.00     953    79.1
 126   12:20   78.0    22    4.9   107      8.6   923.6    0.00     950    79.4
 126   12:30   79.3    21    2.8   170      8.9   923.5    0.00     944    79.7
 126   12:40   79.8    20    5.2   162     10.4   923.5    0.00     937    80.0
 126   12:50   80.3    20    1.6   174      6.6   923.4    0.00     928    80.4
 126   13:00   80.8    19    0.1   210      4.7   923.4    0.00     918    80.8
 126   13:10   81.4    18    0.6   176      5.5   923.4    0.00     908    81.2
 126   13:20   81.4    18    2.1   255      6.6   923.3    0.00     896    81.5

Return to Pahrump, Nevada graphs page.


Western Regional Climate Center,wrcc@dri.edu